sensor_id;sensor_type;location;lat;lon;timestamp;temperature;humidity
9466;DHT22;4771;48.726;9.006;2023-02-01T00:01:06;4.10;99.90
9466;DHT22;4771;48.726;9.006;2023-02-01T00:03:33;4.10;99.90
9466;DHT22;4771;48.726;9.006;2023-02-01T00:06:00;4.00;99.90
9466;DHT22;4771;48.726;9.006;2023-02-01T00:08:28;4.10;99.90
9466;DHT22;4771;48.726;9.006;2023-02-01T00:11:00;4.00;99.90
9466;DHT22;4771;48.726;9.006;2023-02-01T00:13:28;4.00;99.90
9466;DHT22;4771;48.726;9.006;2023-02-01T00:16:02;4.00;99.90
9466;DHT22;4771;48.726;9.006;2023-02-01T00:18:29;4.10;99.90
9466;DHT22;4771;48.726;9.006;2023-02-01T00:20:56;4.10;99.90
9466;DHT22;4771;48.726;9.006;2023-02-01T00:23:23;4.10;99.90
9466;DHT22;4771;48.726;9.006;2023-02-01T00:25:50;4.10;99.90
9466;DHT22;4771;48.726;9.006;2023-02-01T00:28:18;4.10;99.90
9466;DHT22;4771;48.726;9.006;2023-02-01T00:30:45;4.10;99.90
9466;DHT22;4771;48.726;9.006;2023-02-01T00:33:12;4.10;99.90
9466;DHT22;4771;48.726;9.006;2023-02-01T00:35:38;4.10;99.90
9466;DHT22;4771;48.726;9.006;2023-02-01T00:38:05;4.10;99.90
9466;DHT22;4771;48.726;9.006;2023-02-01T00:40:32;4.10;99.90
9466;DHT22;4771;48.726;9.006;2023-02-01T00:42:59;4.10;99.90
9466;DHT22;4771;48.726;9.006;2023-02-01T00:45:27;4.60;99.90
9466;DHT22;4771;48.726;9.006;2023-02-01T00:47:54;4.10;99.90
9466;DHT22;4771;48.726;9.006;2023-02-01T00:50:21;4.10;99.90
9466;DHT22;4771;48.726;9.006;2023-02-01T00:52:47;4.10;99.90
9466;DHT22;4771;48.726;9.006;2023-02-01T00:55:14;4.10;99.90
9466;DHT22;4771;48.726;9.006;2023-02-01T00:57:41;4.70;99.90
9466;DHT22;4771;48.726;9.006;2023-02-01T01:00:09;4.10;99.90
9466;DHT22;4771;48.726;9.006;2023-02-01T01:02:37;4.00;99.90
9466;DHT22;4771;48.726;9.006;2023-02-01T01:05:04;4.10;99.90
9466;DHT22;4771;48.726;9.006;2023-02-01T01:07:31;4.10;99.90
9466;DHT22;4771;48.726;9.006;2023-02-01T01:09:58;4.10;99.90
9466;DHT22;4771;48.726;9.006;2023-02-01T01:12:25;4.10;99.90
9466;DHT22;4771;48.726;9.006;2023-02-01T01:14:52;4.10;99.90
9466;DHT22;4771;48.726;9.006;2023-02-01T01:17:19;4.10;99.90
9466;DHT22;4771;48.726;9.006;2023-02-01T01:19:47;4.10;99.90
9466;DHT22;4771;48.726;9.006;2023-02-01T01:22:14;4.00;99.90
9466;DHT22;4771;48.726;9.006;2023-02-01T01:24:41;4.00;99.90
9466;DHT22;4771;48.726;9.006;2023-02-01T01:27:07;4.00;99.90
9466;DHT22;4771;48.726;9.006;2023-02-01T01:29:34;4.00;99.90
9466;DHT22;4771;48.726;9.006;2023-02-01T01:32:01;4.00;99.90
9466;DHT22;4771;48.726;9.006;2023-02-01T01:34:28;4.00;99.90
9466;DHT22;4771;48.726;9.006;2023-02-01T01:36:56;4.00;99.90
9466;DHT22;4771;48.726;9.006;2023-02-01T01:39:23;4.10;99.90
9466;DHT22;4771;48.726;9.006;2023-02-01T01:41:50;4.10;99.90
9466;DHT22;4771;48.726;9.006;2023-02-01T01:47:21;4.10;99.90
9466;DHT22;4771;48.726;9.006;2023-02-01T01:49:49;4.10;99.90
9466;DHT22;4771;48.726;9.006;2023-02-01T01:52:18;4.10;99.90
9466;DHT22;4771;48.726;9.006;2023-02-01T01:54:48;4.10;99.90
9466;DHT22;4771;48.726;9.006;2023-02-01T01:57:18;4.10;99.90
9466;DHT22;4771;48.726;9.006;2023-02-01T01:59:50;4.10;99.90
9466;DHT22;4771;48.726;9.006;2023-02-01T02:02:19;4.10;99.90
9466;DHT22;4771;48.726;9.006;2023-02-01T02:04:46;4.10;99.90
9466;DHT22;4771;48.726;9.006;2023-02-01T02:07:18;4.10;99.90
9466;DHT22;4771;48.726;9.006;2023-02-01T02:09:46;4.70;99.90
9466;DHT22;4771;48.726;9.006;2023-02-01T02:12:13;4.00;99.90
9466;DHT22;4771;48.726;9.006;2023-02-01T02:14:40;4.00;99.90
9466;DHT22;4771;48.726;9.006;2023-02-01T02:17:21;4.00;99.90
9466;DHT22;4771;48.726;9.006;2023-02-01T02:20:33;4.10;99.90
9466;DHT22;4771;48.726;9.006;2023-02-01T02:23:35;4.10;99.90
9466;DHT22;4771;48.726;9.006;2023-02-01T02:26:16;4.10;99.90
9466;DHT22;4771;48.726;9.006;2023-02-01T02:29:08;4.00;99.90
9466;DHT22;4771;48.726;9.006;2023-02-01T02:31:58;4.00;99.90
9466;DHT22;4771;48.726;9.006;2023-02-01T02:34:31;4.00;99.90
9466;DHT22;4771;48.726;9.006;2023-02-01T02:37:06;4.00;99.90
9466;DHT22;4771;48.726;9.006;2023-02-01T02:39:42;4.10;99.90
9466;DHT22;4771;48.726;9.006;2023-02-01T02:42:21;4.10;99.90
9466;DHT22;4771;48.726;9.006;2023-02-01T02:45:14;4.10;99.90
9466;DHT22;4771;48.726;9.006;2023-02-01T02:48:09;4.00;99.90
9466;DHT22;4771;48.726;9.006;2023-02-01T02:50:42;4.00;99.90
9466;DHT22;4771;48.726;9.006;2023-02-01T02:53:32;4.10;99.90
9466;DHT22;4771;48.726;9.006;2023-02-01T02:56:29;4.10;99.90
9466;DHT22;4771;48.726;9.006;2023-02-01T02:59:17;4.20;99.90
9466;DHT22;4771;48.726;9.006;2023-02-01T03:02:02;4.20;99.90
9466;DHT22;4771;48.726;9.006;2023-02-01T03:04:52;4.30;99.90
9466;DHT22;4771;48.726;9.006;2023-02-01T03:07:49;4.20;99.90
9466;DHT22;4771;48.726;9.006;2023-02-01T03:10:26;4.30;99.90
9466;DHT22;4771;48.726;9.006;2023-02-01T03:12:55;4.30;99.90
9466;DHT22;4771;48.726;9.006;2023-02-01T03:15:31;4.30;99.90
9466;DHT22;4771;48.726;9.006;2023-02-01T03:18:01;4.20;99.90
9466;DHT22;4771;48.726;9.006;2023-02-01T03:20:30;4.20;99.90
9466;DHT22;4771;48.726;9.006;2023-02-01T03:22:59;4.20;99.90
9466;DHT22;4771;48.726;9.006;2023-02-01T03:25:29;4.30;99.90
9466;DHT22;4771;48.726;9.006;2023-02-01T03:27:58;4.30;99.90
9466;DHT22;4771;48.726;9.006;2023-02-01T03:30:29;4.30;99.90
9466;DHT22;4771;48.726;9.006;2023-02-01T03:32:59;4.40;99.90
9466;DHT22;4771;48.726;9.006;2023-02-01T03:35:29;4.40;99.90
9466;DHT22;4771;48.726;9.006;2023-02-01T03:38:04;5.20;99.90
9466;DHT22;4771;48.726;9.006;2023-02-01T03:40:36;4.30;99.90
9466;DHT22;4771;48.726;9.006;2023-02-01T03:43:06;4.40;99.90
9466;DHT22;4771;48.726;9.006;2023-02-01T03:45:38;4.50;99.90
9466;DHT22;4771;48.726;9.006;2023-02-01T03:48:08;4.30;99.90
9466;DHT22;4771;48.726;9.006;2023-02-01T03:50:40;4.30;99.90
9466;DHT22;4771;48.726;9.006;2023-02-01T03:53:14;4.30;99.90
9466;DHT22;4771;48.726;9.006;2023-02-01T03:55:43;4.40;99.90
9466;DHT22;4771;48.726;9.006;2023-02-01T03:58:13;4.30;99.90
9466;DHT22;4771;48.726;9.006;2023-02-01T04:00:43;4.30;99.90
9466;DHT22;4771;48.726;9.006;2023-02-01T04:03:10;4.30;99.90
9466;DHT22;4771;48.726;9.006;2023-02-01T04:05:37;4.30;99.90
9466;DHT22;4771;48.726;9.006;2023-02-01T04:08:04;4.30;99.90
9466;DHT22;4771;48.726;9.006;2023-02-01T04:10:33;4.30;99.90
9466;DHT22;4771;48.726;9.006;2023-02-01T04:12:59;4.10;99.90
9466;DHT22;4771;48.726;9.006;2023-02-01T04:15:26;4.30;99.90
9466;DHT22;4771;48.726;9.006;2023-02-01T04:17:53;4.20;99.90
9466;DHT22;4771;48.726;9.006;2023-02-01T04:20:20;4.30;99.90
9466;DHT22;4771;48.726;9.006;2023-02-01T04:22:47;4.30;99.90
9466;DHT22;4771;48.726;9.006;2023-02-01T04:25:14;4.40;99.90
9466;DHT22;4771;48.726;9.006;2023-02-01T04:27:44;4.30;99.90
9466;DHT22;4771;48.726;9.006;2023-02-01T04:30:11;4.30;99.90
9466;DHT22;4771;48.726;9.006;2023-02-01T04:32:39;4.30;99.90
9466;DHT22;4771;48.726;9.006;2023-02-01T04:35:07;4.40;99.90
9466;DHT22;4771;48.726;9.006;2023-02-01T04:37:34;4.40;99.90
9466;DHT22;4771;48.726;9.006;2023-02-01T04:40:01;4.40;99.90
9466;DHT22;4771;48.726;9.006;2023-02-01T04:42:29;4.40;99.90
9466;DHT22;4771;48.726;9.006;2023-02-01T04:44:57;4.50;99.90
9466;DHT22;4771;48.726;9.006;2023-02-01T04:47:24;4.40;99.90
9466;DHT22;4771;48.726;9.006;2023-02-01T04:49:51;4.50;99.90
9466;DHT22;4771;48.726;9.006;2023-02-01T04:52:18;4.40;99.90
9466;DHT22;4771;48.726;9.006;2023-02-01T04:54:45;4.50;99.90
9466;DHT22;4771;48.726;9.006;2023-02-01T04:57:12;4.50;99.90
9466;DHT22;4771;48.726;9.006;2023-02-01T04:59:40;4.50;99.90
9466;DHT22;4771;48.726;9.006;2023-02-01T05:02:08;4.60;99.90
9466;DHT22;4771;48.726;9.006;2023-02-01T05:04:35;4.50;99.90
9466;DHT22;4771;48.726;9.006;2023-02-01T05:07:02;4.60;99.90
9466;DHT22;4771;48.726;9.006;2023-02-01T05:09:29;4.50;99.90
9466;DHT22;4771;48.726;9.006;2023-02-01T05:11:56;4.50;99.90
9466;DHT22;4771;48.726;9.006;2023-02-01T05:14:40;4.50;99.90
9466;DHT22;4771;48.726;9.006;2023-02-01T05:17:09;4.50;99.90
9466;DHT22;4771;48.726;9.006;2023-02-01T05:19:35;4.50;99.90
9466;DHT22;4771;48.726;9.006;2023-02-01T05:22:02;4.50;99.90
9466;DHT22;4771;48.726;9.006;2023-02-01T05:24:29;4.50;99.90
9466;DHT22;4771;48.726;9.006;2023-02-01T05:26:56;4.50;99.90
9466;DHT22;4771;48.726;9.006;2023-02-01T05:29:23;4.50;99.90
9466;DHT22;4771;48.726;9.006;2023-02-01T05:31:49;4.50;99.90
9466;DHT22;4771;48.726;9.006;2023-02-01T05:34:18;4.60;99.90
9466;DHT22;4771;48.726;9.006;2023-02-01T05:36:44;4.60;99.90
9466;DHT22;4771;48.726;9.006;2023-02-01T05:39:14;4.70;99.90
9466;DHT22;4771;48.726;9.006;2023-02-01T05:41:43;4.60;99.90
9466;DHT22;4771;48.726;9.006;2023-02-01T05:44:10;4.70;99.90
9466;DHT22;4771;48.726;9.006;2023-02-01T05:46:37;4.60;99.90
9466;DHT22;4771;48.726;9.006;2023-02-01T05:49:04;4.60;99.90
9466;DHT22;4771;48.726;9.006;2023-02-01T05:51:32;4.70;99.90
9466;DHT22;4771;48.726;9.006;2023-02-01T05:54:00;4.80;99.90
9466;DHT22;4771;48.726;9.006;2023-02-01T05:56:26;4.70;99.90
9466;DHT22;4771;48.726;9.006;2023-02-01T05:58:53;4.60;99.90
9466;DHT22;4771;48.726;9.006;2023-02-01T06:01:20;4.70;99.90
9466;DHT22;4771;48.726;9.006;2023-02-01T06:03:47;4.60;99.90
9466;DHT22;4771;48.726;9.006;2023-02-01T06:06:14;4.60;99.90
9466;DHT22;4771;48.726;9.006;2023-02-01T06:08:42;4.60;99.90
9466;DHT22;4771;48.726;9.006;2023-02-01T06:11:09;4.50;99.90
9466;DHT22;4771;48.726;9.006;2023-02-01T06:13:36;4.60;99.90
9466;DHT22;4771;48.726;9.006;2023-02-01T06:16:04;4.50;99.90
9466;DHT22;4771;48.726;9.006;2023-02-01T06:18:32;4.50;99.90
9466;DHT22;4771;48.726;9.006;2023-02-01T06:21:00;4.50;99.90
9466;DHT22;4771;48.726;9.006;2023-02-01T06:23:27;4.50;99.90
9466;DHT22;4771;48.726;9.006;2023-02-01T06:26:00;4.70;99.90
9466;DHT22;4771;48.726;9.006;2023-02-01T06:28:27;4.50;99.90
9466;DHT22;4771;48.726;9.006;2023-02-01T06:30:55;4.50;99.90
9466;DHT22;4771;48.726;9.006;2023-02-01T06:33:23;4.50;99.90
9466;DHT22;4771;48.726;9.006;2023-02-01T06:35:57;4.50;99.90
9466;DHT22;4771;48.726;9.006;2023-02-01T06:38:24;4.60;99.90
9466;DHT22;4771;48.726;9.006;2023-02-01T06:40:52;4.50;99.90
9466;DHT22;4771;48.726;9.006;2023-02-01T06:43:21;4.60;99.90
9466;DHT22;4771;48.726;9.006;2023-02-01T06:45:48;4.60;99.90
9466;DHT22;4771;48.726;9.006;2023-02-01T06:48:15;4.60;99.90
9466;DHT22;4771;48.726;9.006;2023-02-01T06:50:42;4.60;99.90
9466;DHT22;4771;48.726;9.006;2023-02-01T06:53:09;4.70;99.90
9466;DHT22;4771;48.726;9.006;2023-02-01T06:55:36;4.60;99.90
9466;DHT22;4771;48.726;9.006;2023-02-01T06:58:03;4.70;99.90
9466;DHT22;4771;48.726;9.006;2023-02-01T07:00:31;4.70;99.90
9466;DHT22;4771;48.726;9.006;2023-02-01T07:02:58;4.80;99.90
9466;DHT22;4771;48.726;9.006;2023-02-01T07:05:25;4.70;99.90
9466;DHT22;4771;48.726;9.006;2023-02-01T07:07:52;4.70;99.90
9466;DHT22;4771;48.726;9.006;2023-02-01T07:10:19;4.70;99.90
9466;DHT22;4771;48.726;9.006;2023-02-01T07:12:46;4.70;99.90
9466;DHT22;4771;48.726;9.006;2023-02-01T07:15:13;4.80;99.90
9466;DHT22;4771;48.726;9.006;2023-02-01T07:17:41;4.80;99.90
9466;DHT22;4771;48.726;9.006;2023-02-01T07:20:09;4.80;99.90
9466;DHT22;4771;48.726;9.006;2023-02-01T07:22:36;4.80;99.90
9466;DHT22;4771;48.726;9.006;2023-02-01T07:25:03;4.80;99.90
9466;DHT22;4771;48.726;9.006;2023-02-01T07:27:33;4.60;99.90
9466;DHT22;4771;48.726;9.006;2023-02-01T07:30:00;4.80;99.90
9466;DHT22;4771;48.726;9.006;2023-02-01T07:32:27;4.80;99.90
9466;DHT22;4771;48.726;9.006;2023-02-01T07:34:56;4.80;99.90
9466;DHT22;4771;48.726;9.006;2023-02-01T07:37:22;4.90;99.90
9466;DHT22;4771;48.726;9.006;2023-02-01T07:39:50;4.80;99.90
9466;DHT22;4771;48.726;9.006;2023-02-01T07:42:17;4.80;99.90
9466;DHT22;4771;48.726;9.006;2023-02-01T07:44:44;4.70;99.90
9466;DHT22;4771;48.726;9.006;2023-02-01T07:47:11;4.50;99.90
9466;DHT22;4771;48.726;9.006;2023-02-01T07:49:37;4.70;99.90
9466;DHT22;4771;48.726;9.006;2023-02-01T07:52:06;4.80;99.90
9466;DHT22;4771;48.726;9.006;2023-02-01T07:54:32;4.80;99.90
9466;DHT22;4771;48.726;9.006;2023-02-01T07:56:59;4.80;99.90
9466;DHT22;4771;48.726;9.006;2023-02-01T07:59:26;4.80;99.90
9466;DHT22;4771;48.726;9.006;2023-02-01T08:01:53;4.80;99.90
9466;DHT22;4771;48.726;9.006;2023-02-01T08:04:19;4.80;99.90
9466;DHT22;4771;48.726;9.006;2023-02-01T08:06:45;4.90;99.90
9466;DHT22;4771;48.726;9.006;2023-02-01T08:09:14;4.90;99.90
9466;DHT22;4771;48.726;9.006;2023-02-01T08:11:41;4.90;99.90
9466;DHT22;4771;48.726;9.006;2023-02-01T08:14:07;5.00;99.90
9466;DHT22;4771;48.726;9.006;2023-02-01T08:16:34;5.00;99.90
9466;DHT22;4771;48.726;9.006;2023-02-01T08:19:03;5.00;99.90
9466;DHT22;4771;48.726;9.006;2023-02-01T08:21:31;5.00;99.90
9466;DHT22;4771;48.726;9.006;2023-02-01T08:24:06;4.90;99.90
9466;DHT22;4771;48.726;9.006;2023-02-01T08:26:34;4.90;99.90
9466;DHT22;4771;48.726;9.006;2023-02-01T08:29:04;5.10;99.90
9466;DHT22;4771;48.726;9.006;2023-02-01T08:31:32;5.00;99.90
9466;DHT22;4771;48.726;9.006;2023-02-01T08:34:01;5.10;99.90
9466;DHT22;4771;48.726;9.006;2023-02-01T08:36:30;5.20;99.90
9466;DHT22;4771;48.726;9.006;2023-02-01T08:38:58;5.20;99.90
9466;DHT22;4771;48.726;9.006;2023-02-01T08:41:26;5.30;99.90
9466;DHT22;4771;48.726;9.006;2023-02-01T08:43:55;5.30;99.90
9466;DHT22;4771;48.726;9.006;2023-02-01T08:46:23;5.30;99.90
9466;DHT22;4771;48.726;9.006;2023-02-01T08:48:52;5.20;99.90
9466;DHT22;4771;48.726;9.006;2023-02-01T08:51:20;5.20;99.90
9466;DHT22;4771;48.726;9.006;2023-02-01T08:53:47;5.30;99.90
9466;DHT22;4771;48.726;9.006;2023-02-01T08:56:16;5.30;99.90
9466;DHT22;4771;48.726;9.006;2023-02-01T08:58:43;5.50;99.90
9466;DHT22;4771;48.726;9.006;2023-02-01T09:01:13;5.40;99.90
9466;DHT22;4771;48.726;9.006;2023-02-01T09:03:41;5.60;99.90
9466;DHT22;4771;48.726;9.006;2023-02-01T09:06:10;5.50;99.90
9466;DHT22;4771;48.726;9.006;2023-02-01T09:08:39;5.60;99.90
9466;DHT22;4771;48.726;9.006;2023-02-01T09:11:08;5.60;99.90
9466;DHT22;4771;48.726;9.006;2023-02-01T09:13:36;5.50;99.90
9466;DHT22;4771;48.726;9.006;2023-02-01T09:16:04;5.50;99.90
9466;DHT22;4771;48.726;9.006;2023-02-01T09:18:33;5.40;99.90
9466;DHT22;4771;48.726;9.006;2023-02-01T09:21:04;5.40;99.90
9466;DHT22;4771;48.726;9.006;2023-02-01T09:23:40;5.30;99.90
9466;DHT22;4771;48.726;9.006;2023-02-01T09:26:08;5.20;99.90
9466;DHT22;4771;48.726;9.006;2023-02-01T09:28:37;5.30;99.90
9466;DHT22;4771;48.726;9.006;2023-02-01T09:31:04;5.30;99.90
9466;DHT22;4771;48.726;9.006;2023-02-01T09:33:30;5.30;99.90
9466;DHT22;4771;48.726;9.006;2023-02-01T09:36:00;5.20;99.90
9466;DHT22;4771;48.726;9.006;2023-02-01T09:38:28;5.20;99.90
9466;DHT22;4771;48.726;9.006;2023-02-01T09:40:55;5.10;99.90
9466;DHT22;4771;48.726;9.006;2023-02-01T09:43:34;5.10;99.90
9466;DHT22;4771;48.726;9.006;2023-02-01T09:46:22;5.20;99.90
9466;DHT22;4771;48.726;9.006;2023-02-01T09:49:00;5.10;99.90
9466;DHT22;4771;48.726;9.006;2023-02-01T09:51:32;5.10;99.90
9466;DHT22;4771;48.726;9.006;2023-02-01T09:54:02;5.10;99.90
9466;DHT22;4771;48.726;9.006;2023-02-01T09:56:36;5.10;99.90
9466;DHT22;4771;48.726;9.006;2023-02-01T09:59:10;5.20;99.90
9466;DHT22;4771;48.726;9.006;2023-02-01T10:01:44;5.20;99.90
9466;DHT22;4771;48.726;9.006;2023-02-01T10:04:13;5.20;99.90
9466;DHT22;4771;48.726;9.006;2023-02-01T10:06:57;5.90;99.90
9466;DHT22;4771;48.726;9.006;2023-02-01T10:09:42;5.30;99.90
9466;DHT22;4771;48.726;9.006;2023-02-01T10:15:15;5.30;99.90
9466;DHT22;4771;48.726;9.006;2023-02-01T10:17:59;5.40;99.90
9466;DHT22;4771;48.726;9.006;2023-02-01T10:20:35;5.30;99.90
9466;DHT22;4771;48.726;9.006;2023-02-01T10:23:15;5.30;99.90
9466;DHT22;4771;48.726;9.006;2023-02-01T10:25:54;5.30;99.90
9466;DHT22;4771;48.726;9.006;2023-02-01T10:28:22;5.50;99.90
9466;DHT22;4771;48.726;9.006;2023-02-01T10:30:54;5.20;99.90
9466;DHT22;4771;48.726;9.006;2023-02-01T10:33:24;5.30;99.90
9466;DHT22;4771;48.726;9.006;2023-02-01T10:35:58;5.40;99.90
9466;DHT22;4771;48.726;9.006;2023-02-01T10:38:31;5.40;99.90
9466;DHT22;4771;48.726;9.006;2023-02-01T10:41:02;5.40;99.90
9466;DHT22;4771;48.726;9.006;2023-02-01T10:43:30;5.50;99.90
9466;DHT22;4771;48.726;9.006;2023-02-01T10:45:59;5.50;99.90
9466;DHT22;4771;48.726;9.006;2023-02-01T10:48:26;5.50;99.90
9466;DHT22;4771;48.726;9.006;2023-02-01T10:50:58;5.50;99.90
9466;DHT22;4771;48.726;9.006;2023-02-01T10:53:31;5.60;99.90
9466;DHT22;4771;48.726;9.006;2023-02-01T10:56:06;5.50;99.90
9466;DHT22;4771;48.726;9.006;2023-02-01T10:58:36;5.50;99.90
9466;DHT22;4771;48.726;9.006;2023-02-01T11:01:10;5.40;99.90
9466;DHT22;4771;48.726;9.006;2023-02-01T11:03:42;5.40;99.90
9466;DHT22;4771;48.726;9.006;2023-02-01T11:06:17;5.40;99.90
9466;DHT22;4771;48.726;9.006;2023-02-01T11:08:51;5.50;99.90
9466;DHT22;4771;48.726;9.006;2023-02-01T11:11:19;5.40;99.90
9466;DHT22;4771;48.726;9.006;2023-02-01T11:13:52;5.40;99.90
9466;DHT22;4771;48.726;9.006;2023-02-01T11:16:20;5.40;99.90
9466;DHT22;4771;48.726;9.006;2023-02-01T11:18:53;5.50;99.90
9466;DHT22;4771;48.726;9.006;2023-02-01T11:21:21;5.40;99.90
9466;DHT22;4771;48.726;9.006;2023-02-01T11:23:49;6.10;99.90
9466;DHT22;4771;48.726;9.006;2023-02-01T11:26:24;5.50;99.90
9466;DHT22;4771;48.726;9.006;2023-02-01T11:28:54;5.40;99.90
9466;DHT22;4771;48.726;9.006;2023-02-01T11:31:25;5.50;99.90
9466;DHT22;4771;48.726;9.006;2023-02-01T11:33:57;5.40;99.90
9466;DHT22;4771;48.726;9.006;2023-02-01T11:36:27;5.50;99.90
9466;DHT22;4771;48.726;9.006;2023-02-01T11:39:16;5.50;99.90
9466;DHT22;4771;48.726;9.006;2023-02-01T11:41:55;5.60;99.90
9466;DHT22;4771;48.726;9.006;2023-02-01T11:44:29;5.40;99.90
9466;DHT22;4771;48.726;9.006;2023-02-01T11:47:23;5.40;99.90
9466;DHT22;4771;48.726;9.006;2023-02-01T11:49:51;5.40;99.90
9466;DHT22;4771;48.726;9.006;2023-02-01T11:52:31;5.40;99.90
9466;DHT22;4771;48.726;9.006;2023-02-01T11:55:10;5.60;99.90
9466;DHT22;4771;48.726;9.006;2023-02-01T11:57:47;5.50;99.90
9466;DHT22;4771;48.726;9.006;2023-02-01T12:00:39;5.50;99.90
9466;DHT22;4771;48.726;9.006;2023-02-01T12:03:28;5.40;99.90
9466;DHT22;4771;48.726;9.006;2023-02-01T12:06:01;5.50;99.90
9466;DHT22;4771;48.726;9.006;2023-02-01T12:08:52;5.50;99.90
9466;DHT22;4771;48.726;9.006;2023-02-01T12:11:42;5.50;99.90
9466;DHT22;4771;48.726;9.006;2023-02-01T12:14:31;5.60;99.90
9466;DHT22;4771;48.726;9.006;2023-02-01T12:17:17;5.50;99.90
9466;DHT22;4771;48.726;9.006;2023-02-01T12:20:01;5.50;99.90
9466;DHT22;4771;48.726;9.006;2023-02-01T12:22:37;5.50;99.90
9466;DHT22;4771;48.726;9.006;2023-02-01T12:25:22;5.40;99.90
9466;DHT22;4771;48.726;9.006;2023-02-01T12:31:10;5.40;99.90
9466;DHT22;4771;48.726;9.006;2023-02-01T12:33:50;5.50;99.90
9466;DHT22;4771;48.726;9.006;2023-02-01T12:36:25;5.40;99.90
9466;DHT22;4771;48.726;9.006;2023-02-01T12:39:15;5.30;99.90
9466;DHT22;4771;48.726;9.006;2023-02-01T12:42:01;5.40;99.90
9466;DHT22;4771;48.726;9.006;2023-02-01T12:44:40;5.40;99.90
9466;DHT22;4771;48.726;9.006;2023-02-01T12:47:16;5.40;99.90
9466;DHT22;4771;48.726;9.006;2023-02-01T12:49:49;5.30;99.90
9466;DHT22;4771;48.726;9.006;2023-02-01T12:52:22;5.30;99.90
9466;DHT22;4771;48.726;9.006;2023-02-01T12:54:56;5.40;99.90
9466;DHT22;4771;48.726;9.006;2023-02-01T12:57:27;5.30;99.90
9466;DHT22;4771;48.726;9.006;2023-02-01T13:00:04;5.30;99.90
9466;DHT22;4771;48.726;9.006;2023-02-01T13:02:37;4.80;99.90
9466;DHT22;4771;48.726;9.006;2023-02-01T13:05:13;5.30;99.90
9466;DHT22;4771;48.726;9.006;2023-02-01T13:07:47;5.30;99.90
9466;DHT22;4771;48.726;9.006;2023-02-01T13:10:20;4.90;99.90
9466;DHT22;4771;48.726;9.006;2023-02-01T13:12:53;5.30;99.90
9466;DHT22;4771;48.726;9.006;2023-02-01T13:15:26;5.20;99.90
9466;DHT22;4771;48.726;9.006;2023-02-01T13:17:57;5.20;99.90
9466;DHT22;4771;48.726;9.006;2023-02-01T13:20:29;5.20;99.90
9466;DHT22;4771;48.726;9.006;2023-02-01T13:23:00;5.20;99.90
9466;DHT22;4771;48.726;9.006;2023-02-01T13:25:34;5.20;99.90
9466;DHT22;4771;48.726;9.006;2023-02-01T13:28:06;5.20;99.90
9466;DHT22;4771;48.726;9.006;2023-02-01T13:31:08;5.20;99.90
9466;DHT22;4771;48.726;9.006;2023-02-01T13:34:03;5.30;99.90
9466;DHT22;4771;48.726;9.006;2023-02-01T13:36:45;5.40;99.90
9466;DHT22;4771;48.726;9.006;2023-02-01T13:39:37;5.40;99.90
9466;DHT22;4771;48.726;9.006;2023-02-01T13:42:21;5.40;99.90
9466;DHT22;4771;48.726;9.006;2023-02-01T13:44:50;5.50;99.90
9466;DHT22;4771;48.726;9.006;2023-02-01T13:47:27;5.40;99.90
9466;DHT22;4771;48.726;9.006;2023-02-01T13:49:56;5.40;99.90
9466;DHT22;4771;48.726;9.006;2023-02-01T13:52:29;5.40;99.90
9466;DHT22;4771;48.726;9.006;2023-02-01T13:58:17;5.30;99.90
9466;DHT22;4771;48.726;9.006;2023-02-01T14:00:46;5.20;99.90
9466;DHT22;4771;48.726;9.006;2023-02-01T14:03:16;5.20;99.90
9466;DHT22;4771;48.726;9.006;2023-02-01T14:09:13;5.20;99.90
9466;DHT22;4771;48.726;9.006;2023-02-01T14:11:44;5.30;99.90
9466;DHT22;4771;48.726;9.006;2023-02-01T14:14:45;5.30;99.90
9466;DHT22;4771;48.726;9.006;2023-02-01T14:17:39;6.10;99.90
9466;DHT22;4771;48.726;9.006;2023-02-01T14:23:21;5.20;99.90
9466;DHT22;4771;48.726;9.006;2023-02-01T14:26:11;5.30;99.90
9466;DHT22;4771;48.726;9.006;2023-02-01T14:31:39;5.30;99.90
9466;DHT22;4771;48.726;9.006;2023-02-01T14:34:20;5.20;99.90
9466;DHT22;4771;48.726;9.006;2023-02-01T14:36:51;5.30;99.90
9466;DHT22;4771;48.726;9.006;2023-02-01T14:39:24;5.30;99.90
9466;DHT22;4771;48.726;9.006;2023-02-01T14:41:55;5.30;99.90
9466;DHT22;4771;48.726;9.006;2023-02-01T14:44:26;5.30;99.90
9466;DHT22;4771;48.726;9.006;2023-02-01T14:49:56;5.30;99.90
9466;DHT22;4771;48.726;9.006;2023-02-01T14:52:29;5.30;99.90
9466;DHT22;4771;48.726;9.006;2023-02-01T14:55:03;5.30;99.90
9466;DHT22;4771;48.726;9.006;2023-02-01T14:57:34;5.30;99.90
9466;DHT22;4771;48.726;9.006;2023-02-01T15:00:20;5.30;99.90
9466;DHT22;4771;48.726;9.006;2023-02-01T15:02:49;5.20;99.90
9466;DHT22;4771;48.726;9.006;2023-02-01T15:05:28;5.30;99.90
9466;DHT22;4771;48.726;9.006;2023-02-01T15:07:58;5.30;99.90
9466;DHT22;4771;48.726;9.006;2023-02-01T15:10:30;5.30;99.90
9466;DHT22;4771;48.726;9.006;2023-02-01T15:12:57;5.30;99.90
9466;DHT22;4771;48.726;9.006;2023-02-01T15:15:25;5.30;99.90
9466;DHT22;4771;48.726;9.006;2023-02-01T15:17:54;5.30;99.90
9466;DHT22;4771;48.726;9.006;2023-02-01T15:20:22;5.30;99.90
9466;DHT22;4771;48.726;9.006;2023-02-01T15:22:55;5.20;99.90
9466;DHT22;4771;48.726;9.006;2023-02-01T15:25:25;5.10;99.90
9466;DHT22;4771;48.726;9.006;2023-02-01T15:27:54;5.20;99.90
9466;DHT22;4771;48.726;9.006;2023-02-01T15:30:23;5.20;99.90
9466;DHT22;4771;48.726;9.006;2023-02-01T15:32:51;5.20;99.90
9466;DHT22;4771;48.726;9.006;2023-02-01T15:35:46;5.20;99.90
9466;DHT22;4771;48.726;9.006;2023-02-01T15:38:36;5.20;99.90
9466;DHT22;4771;48.726;9.006;2023-02-01T15:41:09;5.30;99.90
9466;DHT22;4771;48.726;9.006;2023-02-01T15:43:42;5.40;99.90
9466;DHT22;4771;48.726;9.006;2023-02-01T15:46:12;5.40;99.90
9466;DHT22;4771;48.726;9.006;2023-02-01T15:48:43;5.40;99.90
9466;DHT22;4771;48.726;9.006;2023-02-01T15:51:18;5.40;99.90
9466;DHT22;4771;48.726;9.006;2023-02-01T15:53:51;5.40;99.90
9466;DHT22;4771;48.726;9.006;2023-02-01T15:56:23;5.40;99.90
9466;DHT22;4771;48.726;9.006;2023-02-01T15:58:55;5.50;99.90
9466;DHT22;4771;48.726;9.006;2023-02-01T16:01:23;6.50;99.90
9466;DHT22;4771;48.726;9.006;2023-02-01T16:04:03;5.50;99.90
9466;DHT22;4771;48.726;9.006;2023-02-01T16:06:31;5.60;99.90
9466;DHT22;4771;48.726;9.006;2023-02-01T16:09:09;5.50;99.90
9466;DHT22;4771;48.726;9.006;2023-02-01T16:11:46;5.60;99.90
9466;DHT22;4771;48.726;9.006;2023-02-01T16:14:15;5.60;99.90
9466;DHT22;4771;48.726;9.006;2023-02-01T16:16:42;5.50;99.90
9466;DHT22;4771;48.726;9.006;2023-02-01T16:19:09;5.60;99.90
9466;DHT22;4771;48.726;9.006;2023-02-01T16:21:36;5.50;99.90
9466;DHT22;4771;48.726;9.006;2023-02-01T16:24:03;5.50;99.90
9466;DHT22;4771;48.726;9.006;2023-02-01T16:26:30;5.40;99.90
9466;DHT22;4771;48.726;9.006;2023-02-01T16:28:57;5.50;99.90
9466;DHT22;4771;48.726;9.006;2023-02-01T16:31:30;5.50;99.90
9466;DHT22;4771;48.726;9.006;2023-02-01T16:33:57;5.60;99.90
9466;DHT22;4771;48.726;9.006;2023-02-01T16:36:24;5.50;99.90
9466;DHT22;4771;48.726;9.006;2023-02-01T16:38:52;5.50;99.90
9466;DHT22;4771;48.726;9.006;2023-02-01T16:41:21;5.40;99.90
9466;DHT22;4771;48.726;9.006;2023-02-01T16:43:50;5.30;99.90
9466;DHT22;4771;48.726;9.006;2023-02-01T16:46:25;5.30;99.90
9466;DHT22;4771;48.726;9.006;2023-02-01T16:48:56;5.30;99.90
9466;DHT22;4771;48.726;9.006;2023-02-01T16:51:24;5.40;99.90
9466;DHT22;4771;48.726;9.006;2023-02-01T16:53:52;5.30;99.90
9466;DHT22;4771;48.726;9.006;2023-02-01T16:56:21;5.40;99.90
9466;DHT22;4771;48.726;9.006;2023-02-01T16:58:48;5.40;99.90
9466;DHT22;4771;48.726;9.006;2023-02-01T17:01:16;5.50;99.90
9466;DHT22;4771;48.726;9.006;2023-02-01T17:03:44;5.40;99.90
9466;DHT22;4771;48.726;9.006;2023-02-01T17:06:15;5.30;99.90
9466;DHT22;4771;48.726;9.006;2023-02-01T17:08:45;5.30;99.90
9466;DHT22;4771;48.726;9.006;2023-02-01T17:11:13;5.30;99.90